createdAt,value
2023-04-03T00:02:03.217Z,99.90
2023-04-03T00:04:32.050Z,99.90
2023-04-03T00:06:58.800Z,99.90
2023-04-03T00:09:25.542Z,99.90
2023-04-03T00:11:52.555Z,99.90
2023-04-03T00:14:19.310Z,99.90
2023-04-03T00:16:46.077Z,99.90
2023-04-03T00:19:13.538Z,99.90
2023-04-03T00:21:41.036Z,99.90
2023-04-03T00:24:10.534Z,99.90
2023-04-03T00:26:37.207Z,99.90
2023-04-03T00:29:04.240Z,99.90
2023-04-03T00:31:30.930Z,99.90
2023-04-03T00:33:57.626Z,99.90
2023-04-03T00:36:24.486Z,99.90
2023-04-03T00:38:51.847Z,99.90
2023-04-03T00:41:18.765Z,99.90
2023-04-03T00:43:45.907Z,99.90
2023-04-03T00:46:12.701Z,99.90
2023-04-03T00:48:45.794Z,99.90
2023-04-03T00:51:18.588Z,99.90
2023-04-03T00:53:57.774Z,99.90
2023-04-03T00:56:27.893Z,99.90
2023-04-03T00:59:06.499Z,99.90
2023-04-03T01:01:34.021Z,99.90
2023-04-03T01:04:01.998Z,99.90
2023-04-03T01:06:33.035Z,99.90
2023-04-03T01:09:06.118Z,99.90
2023-04-03T01:11:33.184Z,99.90
2023-04-03T01:14:08.352Z,99.90
2023-04-03T01:16:35.673Z,99.90
2023-04-03T01:19:04.031Z,99.90
2023-04-03T01:21:42.627Z,99.90
2023-04-03T01:24:34.102Z,99.90
2023-04-03T01:27:09.073Z,99.90
2023-04-03T01:29:36.648Z,99.90
2023-04-03T01:32:04.080Z,99.90
2023-04-03T01:34:31.706Z,99.90
2023-04-03T01:37:06.724Z,99.90
2023-04-03T01:39:33.454Z,99.90
2023-04-03T01:42:00.991Z,99.90
2023-04-03T01:44:34.545Z,99.90
2023-04-03T01:47:07.473Z,99.90
2023-04-03T01:49:34.736Z,99.90
2023-04-03T01:52:01.457Z,99.90
2023-04-03T01:54:28.323Z,99.90
2023-04-03T01:56:55.167Z,99.90
2023-04-03T01:59:22.577Z,99.90
2023-04-03T02:01:49.337Z,99.90
2023-04-03T02:04:16.178Z,99.90
2023-04-03T02:06:42.956Z,99.90
2023-04-03T02:09:09.681Z,99.90
2023-04-03T02:11:36.384Z,99.90
2023-04-03T02:14:03.087Z,99.90
2023-04-03T02:16:29.922Z,99.90
2023-04-03T02:18:56.890Z,99.90
2023-04-03T02:21:24.403Z,99.90
2023-04-03T02:23:51.129Z,99.90
2023-04-03T02:26:19.381Z,99.90
2023-04-03T02:28:46.755Z,99.90
2023-04-03T02:31:13.572Z,99.90
2023-04-03T02:33:42.244Z,99.90
2023-04-03T02:36:11.399Z,99.90
2023-04-03T02:38:51.068Z,99.90
2023-04-03T02:41:17.817Z,99.90
2023-04-03T02:43:44.646Z,99.90
2023-04-03T02:46:11.440Z,99.90
2023-04-03T02:48:38.319Z,99.90
2023-04-03T02:51:05.248Z,99.90
2023-04-03T02:53:32.188Z,99.90
2023-04-03T02:56:03.342Z,99.90
2023-04-03T02:58:30.210Z,99.90
2023-04-03T03:00:58.734Z,99.90
2023-04-03T03:03:25.655Z,99.90
2023-04-03T03:06:11.946Z,99.90
2023-04-03T03:08:41.238Z,99.90
2023-04-03T03:11:08.481Z,99.90
2023-04-03T03:13:35.542Z,99.90
2023-04-03T03:16:02.308Z,99.90
2023-04-03T03:18:30.283Z,99.90
2023-04-03T03:20:58.985Z,99.90
2023-04-03T03:23:27.471Z,99.90
2023-04-03T03:25:58.871Z,99.90
2023-04-03T03:28:28.448Z,99.90
2023-04-03T03:30:55.465Z,99.90
2023-04-03T03:33:23.625Z,99.90
2023-04-03T03:35:50.794Z,99.90
2023-04-03T03:38:17.705Z,99.90
2023-04-03T03:40:49.593Z,99.90
2023-04-03T03:43:18.766Z,99.90
2023-04-03T03:45:52.006Z,99.90
2023-04-03T03:48:19.020Z,99.90
2023-04-03T03:50:46.248Z,99.90
2023-04-03T03:53:13.974Z,99.90
2023-04-03T03:55:41.347Z,99.90
2023-04-03T03:58:08.458Z,99.90
2023-04-03T04:00:35.727Z,99.90
2023-04-03T04:03:02.841Z,99.90
2023-04-03T04:05:41.657Z,99.90
2023-04-03T04:08:08.517Z,99.90
2023-04-03T04:10:36.237Z,99.90
2023-04-03T04:13:03.110Z,99.90
2023-04-03T04:15:30.298Z,99.90
2023-04-03T04:17:58.021Z,99.90
2023-04-03T04:20:27.628Z,99.90
2023-04-03T04:22:54.329Z,99.90
2023-04-03T04:25:22.777Z,99.90
2023-04-03T04:27:50.245Z,99.90
2023-04-03T04:30:17.069Z,99.90
2023-04-03T04:32:46.752Z,99.90
2023-04-03T04:35:16.611Z,99.90
2023-04-03T04:37:46.590Z,99.90
2023-04-03T04:40:14.364Z,99.90
2023-04-03T04:42:48.469Z,99.90
2023-04-03T04:45:15.912Z,99.90
2023-04-03T04:47:45.492Z,99.90
2023-04-03T04:50:12.576Z,99.90
2023-04-03T04:52:40.411Z,99.90
2023-04-03T04:55:08.707Z,99.90
2023-04-03T04:57:36.152Z,99.90
2023-04-03T05:00:04.518Z,99.90
2023-04-03T05:02:31.818Z,99.90
2023-04-03T05:04:58.656Z,99.90
2023-04-03T05:07:28.431Z,99.90
2023-04-03T05:09:56.473Z,99.90
2023-04-03T05:12:23.787Z,99.90
2023-04-03T05:14:55.977Z,99.90
2023-04-03T05:17:22.738Z,99.90
2023-04-03T05:19:53.222Z,99.90
2023-04-03T05:22:22.218Z,99.90
2023-04-03T05:24:50.238Z,99.90
2023-04-03T05:27:18.241Z,99.90
2023-04-03T05:29:50.933Z,99.90
2023-04-03T05:32:21.607Z,99.90
2023-04-03T05:34:54.482Z,99.90
2023-04-03T05:37:22.051Z,99.90
2023-04-03T05:39:50.818Z,99.90
2023-04-03T05:42:17.814Z,99.90
2023-04-03T05:44:47.022Z,99.90
2023-04-03T05:47:14.878Z,99.90
2023-04-03T05:49:41.924Z,99.90
2023-04-03T05:52:31.274Z,99.90
2023-04-03T05:54:58.431Z,99.90
2023-04-03T05:57:28.028Z,99.90
2023-04-03T05:59:54.972Z,99.90
2023-04-03T06:02:24.765Z,99.90
2023-04-03T06:04:53.145Z,99.90
2023-04-03T06:07:23.626Z,99.90
2023-04-03T06:09:56.630Z,99.90
2023-04-03T06:12:24.030Z,99.90
2023-04-03T06:14:50.961Z,99.90
2023-04-03T06:17:19.049Z,99.90
2023-04-03T06:19:46.577Z,99.90
2023-04-03T06:22:13.922Z,99.90
2023-04-03T06:24:41.199Z,99.90
2023-04-03T06:27:08.188Z,99.90
2023-04-03T06:29:34.888Z,99.90
2023-04-03T06:32:01.567Z,99.90
2023-04-03T06:34:28.546Z,99.90
2023-04-03T06:36:55.221Z,99.90
2023-04-03T06:39:26.209Z,99.90
2023-04-03T06:41:53.058Z,99.90
2023-04-03T06:44:27.804Z,99.90
2023-04-03T06:46:55.279Z,99.90
2023-04-03T06:49:22.523Z,99.90
2023-04-03T06:51:49.238Z,99.90
2023-04-03T06:54:16.071Z,99.90
2023-04-03T06:56:42.758Z,99.90
2023-04-03T06:59:11.261Z,99.90
2023-04-03T07:01:38.044Z,99.90
2023-04-03T07:04:05.001Z,99.90
2023-04-03T07:06:33.245Z,99.90
2023-04-03T07:09:00.323Z,99.90
2023-04-03T07:11:27.661Z,99.90
2023-04-03T07:13:57.616Z,99.90
2023-04-03T07:16:24.775Z,99.90
2023-04-03T07:18:52.017Z,99.90
2023-04-03T07:21:18.714Z,99.90
2023-04-03T07:23:45.834Z,99.90
2023-04-03T07:26:12.590Z,99.90
2023-04-03T07:28:41.131Z,99.90
2023-04-03T07:31:12.003Z,99.90
2023-04-03T07:33:39.277Z,99.90
2023-04-03T07:36:07.870Z,99.90
2023-04-03T07:38:36.349Z,99.90
2023-04-03T07:41:03.746Z,99.90
2023-04-03T07:43:30.501Z,99.90
2023-04-03T07:45:57.347Z,99.90
2023-04-03T07:48:27.396Z,99.90
2023-04-03T07:50:54.122Z,99.90
2023-04-03T07:53:20.910Z,99.90
2023-04-03T07:55:49.256Z,99.90
2023-04-03T07:58:19.197Z,99.90
2023-04-03T08:00:46.578Z,99.90
2023-04-03T08:03:14.056Z,99.90
2023-04-03T08:05:46.131Z,99.90
2023-04-03T08:08:14.504Z,99.90
2023-04-03T08:10:41.841Z,99.90
2023-04-03T08:13:09.610Z,99.90
2023-04-03T08:15:37.726Z,99.90
2023-04-03T08:18:05.802Z,99.90
2023-04-03T08:20:32.520Z,99.90
2023-04-03T08:22:59.402Z,99.90
2023-04-03T08:25:26.182Z,99.90
2023-04-03T08:27:52.858Z,99.90
2023-04-03T08:30:19.658Z,99.90
2023-04-03T08:32:47.030Z,99.90
2023-04-03T08:35:13.881Z,99.90
2023-04-03T08:37:41.336Z,99.90
2023-04-03T08:40:13.785Z,99.90
2023-04-03T08:42:59.382Z,99.90
2023-04-03T08:45:51.183Z,99.90
2023-04-03T08:48:20.551Z,99.90
2023-04-03T08:50:53.011Z,99.90
2023-04-03T08:53:29.353Z,99.90
2023-04-03T08:55:56.471Z,99.90
2023-04-03T08:58:32.966Z,99.00
2023-04-03T09:01:04.971Z,99.90
2023-04-03T09:03:34.261Z,99.00
2023-04-03T09:06:16.165Z,98.30
2023-04-03T09:09:08.000Z,97.40
2023-04-03T09:12:10.113Z,98.00
2023-04-03T09:14:50.530Z,97.50
2023-04-03T09:17:31.482Z,98.10
2023-04-03T09:20:08.752Z,96.10
2023-04-03T09:22:45.778Z,94.80
2023-04-03T09:25:29.983Z,94.30
2023-04-03T09:27:57.875Z,95.50
2023-04-03T09:30:26.682Z,97.60
2023-04-03T09:32:55.882Z,97.30
2023-04-03T09:35:27.398Z,97.50
2023-04-03T09:38:11.617Z,96.10
2023-04-03T09:40:41.030Z,95.10
2023-04-03T09:43:31.561Z,95.60
2023-04-03T09:46:19.386Z,94.10
2023-04-03T09:49:08.124Z,94.60
2023-04-03T09:51:35.990Z,95.20
2023-04-03T09:54:32.911Z,95.00
2023-04-03T09:57:09.060Z,95.50
2023-04-03T09:59:36.216Z,94.00
2023-04-03T10:02:33.234Z,94.10
2023-04-03T10:05:09.355Z,92.80
2023-04-03T10:07:38.909Z,93.60
2023-04-03T10:10:21.384Z,93.20
2023-04-03T10:12:49.032Z,92.10
2023-04-03T10:15:19.715Z,93.90
2023-04-03T10:18:06.360Z,92.90
2023-04-03T10:20:45.013Z,92.00
2023-04-03T10:23:41.489Z,92.00
2023-04-03T10:26:43.782Z,91.60
2023-04-03T10:29:31.719Z,91.50
2023-04-03T10:32:29.918Z,90.60
2023-04-03T10:35:31.620Z,90.70
2023-04-03T10:38:19.199Z,90.50
2023-04-03T10:41:01.789Z,89.70
2023-04-03T10:44:09.071Z,90.00
2023-04-03T10:46:51.642Z,87.40
2023-04-03T10:49:59.064Z,87.70
2023-04-03T10:52:49.338Z,89.30
2023-04-03T10:55:27.938Z,90.50
2023-04-03T10:57:59.636Z,90.50
2023-04-03T11:00:45.201Z,90.30
2023-04-03T11:03:23.783Z,89.90
2023-04-03T11:05:58.157Z,88.00
2023-04-03T11:08:40.807Z,90.50
2023-04-03T11:11:14.176Z,90.10
2023-04-03T11:14:21.839Z,88.20
2023-04-03T11:16:54.769Z,90.70
2023-04-03T11:19:29.195Z,91.00
2023-04-03T11:22:01.691Z,90.50
2023-04-03T11:24:32.065Z,90.60
2023-04-03T11:27:00.955Z,90.60
2023-04-03T11:29:38.881Z,89.70
2023-04-03T11:32:37.908Z,89.60
2023-04-03T11:35:08.308Z,87.40
2023-04-03T11:37:49.648Z,86.80
2023-04-03T11:40:16.432Z,89.20
2023-04-03T11:42:48.212Z,87.80
2023-04-03T11:45:24.379Z,89.90
2023-04-03T11:47:55.128Z,88.60
2023-04-03T11:50:42.955Z,90.60
2023-04-03T11:53:12.932Z,87.80
2023-04-03T11:55:56.264Z,86.20
2023-04-03T11:58:26.191Z,83.80
2023-04-03T12:00:58.378Z,83.90
2023-04-03T12:03:28.404Z,84.60
2023-04-03T12:06:05.775Z,87.50
2023-04-03T12:08:44.278Z,87.50
2023-04-03T12:11:14.272Z,86.10
2023-04-03T12:13:50.341Z,86.60
2023-04-03T12:16:22.754Z,86.30
2023-04-03T12:19:03.548Z,88.50
2023-04-03T12:21:30.208Z,86.80
2023-04-03T12:24:04.134Z,90.10
2023-04-03T12:27:02.626Z,89.10
2023-04-03T12:29:53.524Z,88.20
2023-04-03T12:32:38.204Z,89.70
2023-04-03T12:35:18.086Z,88.90
2023-04-03T12:37:52.612Z,90.40
2023-04-03T12:40:47.074Z,88.90
2023-04-03T12:43:41.627Z,88.80
2023-04-03T12:46:08.405Z,86.80
2023-04-03T12:48:47.962Z,86.80
2023-04-03T12:51:23.288Z,89.10
2023-04-03T12:53:53.780Z,88.40
2023-04-03T12:56:23.638Z,90.40
2023-04-03T12:58:52.170Z,89.10
2023-04-03T13:01:22.486Z,90.60
2023-04-03T13:03:52.852Z,90.80
2023-04-03T13:06:25.599Z,90.20
2023-04-03T13:09:01.623Z,91.20
2023-04-03T13:11:33.809Z,90.20
2023-04-03T13:14:14.405Z,90.20
2023-04-03T13:16:42.418Z,85.00
2023-04-03T13:19:18.463Z,87.00
2023-04-03T13:21:46.375Z,84.80
2023-04-03T13:24:15.683Z,88.60
2023-04-03T13:26:43.717Z,90.30
2023-04-03T13:29:31.561Z,90.10
2023-04-03T13:32:00.872Z,86.60
2023-04-03T13:34:36.532Z,88.90
2023-04-03T13:37:05.371Z,85.10
2023-04-03T13:39:35.693Z,86.70
2023-04-03T13:42:23.616Z,88.80
2023-04-03T13:44:50.396Z,87.20
2023-04-03T13:47:23.896Z,86.70
2023-04-03T13:50:04.500Z,87.40
2023-04-03T13:52:41.738Z,85.30
2023-04-03T13:55:44.182Z,86.10
2023-04-03T13:58:10.906Z,83.50
2023-04-03T14:00:47.917Z,85.40
2023-04-03T14:03:41.053Z,85.40
2023-04-03T14:06:12.013Z,82.10
2023-04-03T14:08:43.336Z,81.40
2023-04-03T14:11:21.707Z,83.10
2023-04-03T14:13:49.610Z,80.40
2023-04-03T14:16:24.474Z,83.50
2023-04-03T14:18:52.386Z,82.20
2023-04-03T14:21:22.188Z,81.50
2023-04-03T14:23:49.683Z,81.80
2023-04-03T14:26:19.768Z,80.80
2023-04-03T14:28:48.497Z,81.70
2023-04-03T14:31:16.908Z,80.60
2023-04-03T14:33:44.136Z,77.50
2023-04-03T14:36:17.838Z,80.80
2023-04-03T14:38:45.640Z,80.80
2023-04-03T14:41:23.515Z,81.80
2023-04-03T14:43:51.201Z,77.70
2023-04-03T14:49:19.352Z,80.90
2023-04-03T14:51:46.228Z,80.40
2023-04-03T14:54:19.351Z,81.50
2023-04-03T14:56:46.400Z,79.80
2023-04-03T14:59:15.550Z,80.90
2023-04-03T15:01:42.628Z,80.60
2023-04-03T15:04:17.718Z,80.60
2023-04-03T15:06:45.641Z,79.00
2023-04-03T15:09:27.017Z,79.00
2023-04-03T15:11:55.500Z,79.90
2023-04-03T15:14:35.607Z,78.60
2023-04-03T15:17:06.225Z,80.50
2023-04-03T15:19:38.687Z,77.70
2023-04-03T15:22:05.899Z,79.80
2023-04-03T15:24:32.689Z,78.60
2023-04-03T15:27:00.897Z,78.20
2023-04-03T15:29:28.181Z,79.10
2023-04-03T15:31:55.020Z,79.50
2023-04-03T15:34:22.868Z,79.60
2023-04-03T15:36:53.528Z,78.20
2023-04-03T15:39:21.670Z,79.90
2023-04-03T15:41:48.595Z,78.80
2023-04-03T15:44:18.384Z,79.40
2023-04-03T15:46:52.416Z,80.50
2023-04-03T15:49:21.798Z,80.20
2023-04-03T15:51:48.926Z,79.20
2023-04-03T15:54:17.338Z,78.30
2023-04-03T15:56:44.459Z,79.00
2023-04-03T15:59:11.687Z,77.90
2023-04-03T16:01:39.919Z,77.30
2023-04-03T16:04:08.291Z,78.60
2023-04-03T16:06:35.369Z,78.70
2023-04-03T16:09:02.191Z,76.30
2023-04-03T16:11:29.079Z,75.50
2023-04-03T16:13:56.162Z,77.40
2023-04-03T16:16:24.207Z,80.70
2023-04-03T16:18:51.525Z,79.00
2023-04-03T16:21:18.696Z,79.20
2023-04-03T16:23:46.651Z,79.80
2023-04-03T16:26:14.081Z,78.90
2023-04-03T16:28:41.060Z,80.00
2023-04-03T16:31:08.619Z,79.20
2023-04-03T16:33:36.023Z,80.60
2023-04-03T16:36:04.230Z,80.50
2023-04-03T16:38:30.980Z,79.30
2023-04-03T16:41:00.221Z,79.30
2023-04-03T16:43:27.820Z,79.80
2023-04-03T16:45:54.622Z,81.60
2023-04-03T16:48:21.523Z,81.80
2023-04-03T16:50:49.905Z,80.50
2023-04-03T16:53:17.026Z,81.20
2023-04-03T16:55:43.753Z,81.00
2023-04-03T16:58:11.164Z,77.90
2023-04-03T17:00:37.991Z,79.30
2023-04-03T17:03:04.898Z,79.50
2023-04-03T17:05:31.876Z,81.00
2023-04-03T17:07:59.889Z,81.30
2023-04-03T17:10:26.728Z,80.70
2023-04-03T17:12:53.500Z,79.40
2023-04-03T17:15:21.035Z,79.60
2023-04-03T17:17:49.666Z,78.60
2023-04-03T17:20:16.532Z,79.10
2023-04-03T17:22:43.408Z,80.70
2023-04-03T17:25:11.143Z,80.80
2023-04-03T17:27:38.151Z,81.50
2023-04-03T17:30:06.114Z,82.30
2023-04-03T17:32:33.117Z,82.30
2023-04-03T17:34:59.947Z,80.30
2023-04-03T17:37:26.634Z,78.80
2023-04-03T17:39:53.381Z,79.20
2023-04-03T17:42:21.278Z,81.70
2023-04-03T17:44:48.090Z,80.40
2023-04-03T17:47:14.762Z,81.30
2023-04-03T17:49:41.540Z,82.10
2023-04-03T17:52:08.175Z,82.20
2023-04-03T17:54:34.879Z,81.90
2023-04-03T17:57:03.448Z,82.90
2023-04-03T17:59:30.294Z,83.60
2023-04-03T18:01:57.119Z,83.10
2023-04-03T18:04:24.071Z,83.70
2023-04-03T18:06:53.580Z,84.00
2023-04-03T18:09:25.313Z,83.90
2023-04-03T18:11:52.745Z,85.20
2023-04-03T18:14:22.800Z,85.40
2023-04-03T18:16:49.741Z,86.90
2023-04-03T18:21:47.710Z,85.80
2023-04-03T18:24:16.721Z,85.50
2023-04-03T18:26:47.093Z,85.80
2023-04-03T18:29:14.152Z,88.20
2023-04-03T18:31:43.681Z,88.20
2023-04-03T18:34:10.707Z,88.20
2023-04-03T18:36:37.402Z,86.70
2023-04-03T18:39:04.409Z,86.70
2023-04-03T18:41:33.810Z,88.10
2023-04-03T18:44:03.081Z,86.30
2023-04-03T18:46:31.129Z,88.10
2023-04-03T18:48:57.928Z,87.70
2023-04-03T18:51:25.618Z,88.20
2023-04-03T18:53:52.423Z,88.40
2023-04-03T18:56:21.514Z,88.50
2023-04-03T18:58:48.419Z,88.50
2023-04-03T19:01:15.967Z,89.20
2023-04-03T19:03:43.157Z,89.50
2023-04-03T19:06:10.206Z,90.40
2023-04-03T19:08:37.035Z,90.30
2023-04-03T19:11:04.077Z,90.80
2023-04-03T19:13:32.605Z,91.10
2023-04-03T19:15:59.964Z,90.30
2023-04-03T19:18:27.511Z,90.30
2023-04-03T19:20:57.538Z,89.50
2023-04-03T19:23:25.048Z,90.70
2023-04-03T19:26:06.476Z,90.30
2023-04-03T19:28:33.331Z,90.10
2023-04-03T19:31:01.499Z,90.40
2023-04-03T19:33:28.678Z,90.80
2023-04-03T19:35:55.740Z,90.50
2023-04-03T19:38:22.771Z,90.90
2023-04-03T19:40:49.762Z,91.10
2023-04-03T19:43:17.133Z,90.90
2023-04-03T19:45:45.952Z,91.10
2023-04-03T19:48:13.031Z,91.30
2023-04-03T19:50:40.461Z,92.00
2023-04-03T19:53:08.625Z,92.40
2023-04-03T19:55:36.215Z,92.20
2023-04-03T19:58:03.558Z,92.50
2023-04-03T20:00:31.494Z,93.40
2023-04-03T20:02:58.580Z,93.30
2023-04-03T20:05:25.391Z,93.50
2023-04-03T20:07:52.563Z,93.60
2023-04-03T20:10:19.979Z,94.20
2023-04-03T20:12:46.819Z,94.30
2023-04-03T20:15:13.634Z,94.20
2023-04-03T20:17:40.610Z,95.30
2023-04-03T20:20:08.190Z,94.70
2023-04-03T20:22:36.252Z,94.60
2023-04-03T20:25:06.743Z,94.70
2023-04-03T20:27:34.903Z,94.60
2023-04-03T20:30:04.043Z,94.60
2023-04-03T20:32:31.479Z,94.80
2023-04-03T20:35:04.253Z,94.90
2023-04-03T20:37:32.124Z,95.60
2023-04-03T20:39:58.810Z,95.40
2023-04-03T20:42:26.118Z,95.80
2023-04-03T20:44:53.106Z,96.30
2023-04-03T20:47:19.876Z,95.90
2023-04-03T20:49:46.670Z,96.40
2023-04-03T20:52:13.393Z,96.00
2023-04-03T20:54:40.781Z,95.60
2023-04-03T20:57:07.532Z,96.70
2023-04-03T20:59:36.808Z,95.90
2023-04-03T21:02:03.716Z,96.30
2023-04-03T21:04:48.291Z,96.40
2023-04-03T21:07:53.206Z,96.70
2023-04-03T21:10:57.116Z,96.70
2023-04-03T21:14:02.328Z,97.00
2023-04-03T21:16:29.218Z,98.40
2023-04-03T21:19:23.290Z,98.40
2023-04-03T21:21:51.999Z,98.00
2023-04-03T21:24:19.529Z,98.40
2023-04-03T21:26:46.540Z,98.70
2023-04-03T21:29:13.937Z,98.90
2023-04-03T21:32:07.753Z,98.60
2023-04-03T21:34:35.163Z,98.30
2023-04-03T21:37:04.569Z,98.90
2023-04-03T21:39:31.918Z,98.70
2023-04-03T21:41:59.082Z,99.40
2023-04-03T21:44:27.135Z,99.20
2023-04-03T21:46:54.559Z,99.30
2023-04-03T21:49:25.327Z,99.20
2023-04-03T21:51:52.613Z,99.60
2023-04-03T21:54:20.168Z,99.80
2023-04-03T21:56:51.453Z,99.30
2023-04-03T21:59:18.373Z,99.40
2023-04-03T22:01:45.633Z,99.50
2023-04-03T22:04:12.726Z,99.90
2023-04-03T22:06:39.501Z,99.90
2023-04-03T22:09:06.582Z,99.90
2023-04-03T22:11:33.404Z,99.90
2023-04-03T22:14:00.920Z,99.90
2023-04-03T22:16:27.745Z,99.90
2023-04-03T22:18:56.133Z,99.90
2023-04-03T22:21:23.136Z,99.90
2023-04-03T22:23:49.916Z,99.90
2023-04-03T22:26:16.616Z,99.90
2023-04-03T22:28:45.686Z,99.90
2023-04-03T22:31:16.274Z,99.90
2023-04-03T22:33:44.705Z,99.90
2023-04-03T22:36:12.732Z,99.90
2023-04-03T22:38:43.275Z,99.90
2023-04-03T22:41:10.570Z,99.90
2023-04-03T22:43:38.409Z,99.90
2023-04-03T22:46:07.496Z,99.90
2023-04-03T22:48:34.750Z,99.90
2023-04-03T22:51:06.531Z,99.90
2023-04-03T22:53:33.388Z,99.90
2023-04-03T22:56:02.366Z,99.90
2023-04-03T22:58:29.815Z,99.90
2023-04-03T23:01:05.771Z,99.90
2023-04-03T23:03:33.262Z,99.90
2023-04-03T23:06:01.646Z,99.90
2023-04-03T23:08:28.842Z,99.90
2023-04-03T23:10:59.787Z,99.90
2023-04-03T23:13:26.494Z,99.90
2023-04-03T23:16:00.571Z,99.90
2023-04-03T23:18:31.426Z,99.90
2023-04-03T23:21:03.700Z,99.90
2023-04-03T23:23:31.033Z,99.90
2023-04-03T23:25:59.896Z,99.90
2023-04-03T23:28:27.345Z,99.90
2023-04-03T23:31:05.510Z,99.90
2023-04-03T23:33:33.240Z,99.90
2023-04-03T23:36:05.667Z,99.90
2023-04-03T23:38:32.471Z,99.90
2023-04-03T23:40:59.249Z,99.90
2023-04-03T23:43:26.200Z,99.90
2023-04-03T23:45:53.081Z,99.90
2023-04-03T23:48:19.946Z,99.90
2023-04-03T23:50:46.849Z,99.90
2023-04-03T23:53:13.632Z,99.90
2023-04-03T23:55:40.968Z,99.90
2023-04-03T23:58:07.676Z,99.90
